createdAt,value
2019-04-11T00:00:09.504Z,14.33
2019-04-11T00:04:19.902Z,14.53
2019-04-11T00:08:30.162Z,14.30
2019-04-11T00:12:40.948Z,14.47
2019-04-11T00:16:50.443Z,15.77
2019-04-11T00:21:00.300Z,14.80
2019-04-11T00:25:09.817Z,15.00
2019-04-11T00:29:20.484Z,16.03
2019-04-11T00:33:30.018Z,17.77
2019-04-11T00:37:39.464Z,15.13
2019-04-11T00:41:48.689Z,15.27
2019-04-11T00:45:58.188Z,18.80
2019-04-11T00:50:07.647Z,19.60
2019-04-11T00:54:18.404Z,15.50
2019-04-11T00:58:28.266Z,16.00
2019-04-11T01:02:40.353Z,16.13
2019-04-11T01:06:50.136Z,15.37
2019-04-11T01:10:59.913Z,10.60
2019-04-11T01:15:11.237Z,10.50
2019-04-11T01:19:20.560Z,8.37
2019-04-11T01:23:29.647Z,8.10
2019-04-11T01:27:39.951Z,7.20
2019-04-11T01:31:53.787Z,6.43
2019-04-11T01:36:04.765Z,5.90
2019-04-11T01:40:15.749Z,8.03
2019-04-11T01:44:25.254Z,5.63
2019-04-11T01:48:50.002Z,5.47
2019-04-11T01:53:00.456Z,5.30
2019-04-11T01:57:11.709Z,5.03
2019-04-11T02:01:38.975Z,4.20
2019-04-11T02:05:49.406Z,4.77
2019-04-11T02:10:00.165Z,4.67
2019-04-11T02:14:15.820Z,3.27
2019-04-11T02:18:21.484Z,3.13
2019-04-11T02:22:52.877Z,2.87
2019-04-11T02:27:21.001Z,2.10
2019-04-11T02:31:30.576Z,3.83
2019-04-11T02:35:42.349Z,3.23
2019-04-11T02:39:51.581Z,2.93
2019-04-11T02:44:03.478Z,2.37
2019-04-11T02:48:13.718Z,3.33
2019-04-11T02:52:25.412Z,2.33
2019-04-11T02:56:36.343Z,3.13
2019-04-11T03:00:46.814Z,2.83
2019-04-11T03:04:56.658Z,2.20
2019-04-11T03:09:07.939Z,3.57
2019-04-11T03:13:18.930Z,2.33
2019-04-11T03:17:34.156Z,2.13
2019-04-11T03:21:41.715Z,1.90
2019-04-11T03:25:50.334Z,2.20
2019-04-11T03:30:02.690Z,2.17
2019-04-11T03:35:03.936Z,3.00
2019-04-11T03:38:42.783Z,2.13
2019-04-11T03:42:46.537Z,2.33
2019-04-11T03:47:02.128Z,3.10
2019-04-11T03:50:57.604Z,1.70
2019-04-11T03:55:09.317Z,2.30
2019-04-11T03:59:22.867Z,1.97
2019-04-11T04:03:31.419Z,1.53
2019-04-11T04:07:40.941Z,2.13
2019-04-11T04:11:51.268Z,3.33
2019-04-11T04:16:17.691Z,1.73
2019-04-11T04:20:35.342Z,1.90
2019-04-11T04:24:46.809Z,1.87
2019-04-11T04:28:57.659Z,1.50
2019-04-11T04:33:07.124Z,2.10
2019-04-11T04:37:18.089Z,1.60
2019-04-11T04:41:37.723Z,1.83
2019-04-11T04:45:57.787Z,1.63
2019-04-11T04:49:52.259Z,1.93
2019-04-11T04:54:01.530Z,1.63
2019-04-11T04:58:10.950Z,2.00
2019-04-11T05:02:20.776Z,2.33
2019-04-11T05:06:30.601Z,2.10
2019-04-11T05:10:40.332Z,1.70
2019-04-11T05:14:51.766Z,1.97
2019-04-11T05:19:00.930Z,1.80
2019-04-11T05:23:10.050Z,2.33
2019-04-11T05:27:20.862Z,1.40
2019-04-11T05:31:31.043Z,2.30
2019-04-11T05:35:41.635Z,3.63
2019-04-11T05:39:52.451Z,2.00
2019-04-11T05:44:03.515Z,1.57
2019-04-11T05:48:21.973Z,1.90
2019-04-11T05:52:31.944Z,1.50
2019-04-11T05:56:41.430Z,2.30
2019-04-11T06:01:14.373Z,2.53
2019-04-11T06:05:31.845Z,2.07
2019-04-11T06:09:39.866Z,2.23
2019-04-11T06:14:03.740Z,1.70
2019-04-11T06:18:27.889Z,2.57
2019-04-11T06:22:31.822Z,1.90
2019-04-11T06:27:06.137Z,3.03
2019-04-11T06:31:47.429Z,4.40
2019-04-11T06:36:15.866Z,2.87
2019-04-11T06:40:34.606Z,4.50
2019-04-11T06:44:58.625Z,3.60
2019-04-11T06:49:14.731Z,2.90
2019-04-11T06:53:32.089Z,4.40
2019-04-11T06:57:42.430Z,4.23
2019-04-11T07:01:53.003Z,3.93
2019-04-11T07:06:06.911Z,3.50
2019-04-11T07:10:16.611Z,4.27
2019-04-11T07:14:44.070Z,3.60
2019-04-11T07:19:24.741Z,4.40
2019-04-11T07:23:51.407Z,4.03
2019-04-11T07:28:19.195Z,3.37
2019-04-11T07:32:29.962Z,4.00
2019-04-11T07:36:55.890Z,3.90
2019-04-11T07:41:23.912Z,4.17
2019-04-11T07:45:49.650Z,6.53
2019-04-11T07:50:00.053Z,5.30
2019-04-11T07:54:23.301Z,4.63
2019-04-11T07:58:42.075Z,5.20
2019-04-11T08:03:08.113Z,4.70
2019-04-11T08:07:44.840Z,4.90
2019-04-11T08:12:15.226Z,4.97
2019-04-11T08:16:45.114Z,5.80
2019-04-11T08:21:10.562Z,5.10
2019-04-11T08:25:25.763Z,5.80
2019-04-11T08:29:35.938Z,6.50
2019-04-11T08:33:46.710Z,6.07
2019-04-11T08:38:02.896Z,5.03
2019-04-11T08:42:28.117Z,4.80
2019-04-11T08:46:40.284Z,5.07
2019-04-11T08:50:53.146Z,5.53
2019-04-11T08:55:23.371Z,5.23
2019-04-11T08:59:44.520Z,5.57
2019-04-11T09:04:18.387Z,10.30
2019-04-11T09:08:40.775Z,13.67
2019-04-11T09:13:00.560Z,5.77
2019-04-11T09:17:21.460Z,6.53
2019-04-11T09:21:48.672Z,7.17
2019-04-11T09:26:25.632Z,6.77
2019-04-11T09:30:56.920Z,7.40
2019-04-11T09:35:12.529Z,6.80
2019-04-11T09:39:48.856Z,8.53
2019-04-11T09:44:00.163Z,7.80
2019-04-11T09:48:35.737Z,6.70
2019-04-11T09:52:47.396Z,6.30
2019-04-11T09:57:13.127Z,6.33
2019-04-11T10:01:40.793Z,7.87
2019-04-11T10:06:07.143Z,7.63
2019-04-11T10:10:46.759Z,7.00
2019-04-11T10:14:56.057Z,6.50
2019-04-11T10:19:25.882Z,5.60
2019-04-11T10:23:58.962Z,6.33
2019-04-11T10:28:33.458Z,7.23
2019-04-11T10:32:47.646Z,8.10
2019-04-11T10:37:05.582Z,6.07
2019-04-11T10:41:35.821Z,5.97
2019-04-11T10:46:05.597Z,7.63
2019-04-11T10:50:19.598Z,7.03
2019-04-11T10:54:29.741Z,11.80
2019-04-11T10:59:02.168Z,7.50
2019-04-11T11:03:18.188Z,6.33
2019-04-11T11:07:30.763Z,5.77
2019-04-11T11:11:46.940Z,7.13
2019-04-11T11:15:59.887Z,8.90
2019-04-11T11:20:38.533Z,7.40
2019-04-11T11:25:04.827Z,6.47
2019-04-11T11:29:32.320Z,9.93
2019-04-11T11:33:42.688Z,7.90
2019-04-11T11:37:57.447Z,11.00
2019-04-11T11:42:23.159Z,7.27
2019-04-11T11:46:40.425Z,8.70
2019-04-11T11:50:51.466Z,6.70
2019-04-11T11:55:02.211Z,7.80
2019-04-11T11:59:32.316Z,8.23
2019-04-11T12:04:05.752Z,7.30
2019-04-11T12:08:32.753Z,8.00
2019-04-11T12:12:55.992Z,8.33
2019-04-11T12:17:23.229Z,7.57
2019-04-11T12:21:35.179Z,13.57
2019-04-11T12:25:45.988Z,7.53
2019-04-11T12:30:13.463Z,6.17
2019-04-11T12:34:37.074Z,7.30
2019-04-11T12:39:13.189Z,8.07
2019-04-11T12:43:22.450Z,10.70
2019-04-11T12:47:40.154Z,9.20
2019-04-11T12:52:05.147Z,8.63
2019-04-11T12:56:30.165Z,8.97
2019-04-11T13:00:55.075Z,9.43
2019-04-11T13:05:04.915Z,10.67
2019-04-11T13:09:29.414Z,10.97
2019-04-11T13:13:56.842Z,17.57
2019-04-11T13:18:17.133Z,17.67
2019-04-11T13:22:27.302Z,15.30
2019-04-11T13:26:52.715Z,17.50
2019-04-11T13:31:20.397Z,25.20
2019-04-11T13:35:48.184Z,23.37
2019-04-11T13:40:07.671Z,24.83
2019-04-11T13:44:21.333Z,24.57
2019-04-11T13:49:00.529Z,33.33
2019-04-11T13:53:33.636Z,30.63
2019-04-11T13:58:01.636Z,37.70
2019-04-11T14:02:19.513Z,49.67
2019-04-11T14:06:30.679Z,40.13
2019-04-11T14:10:41.307Z,33.90
2019-04-11T14:15:12.151Z,32.40
2019-04-11T14:19:34.105Z,33.40
2019-04-11T14:24:01.554Z,30.73
2019-04-11T14:28:11.160Z,33.03
2019-04-11T14:32:30.565Z,51.83
2019-04-11T14:37:10.166Z,40.87
2019-04-11T14:41:36.480Z,38.80
2019-04-11T14:46:07.485Z,45.77
2019-04-11T14:50:17.266Z,37.17
2019-04-11T14:54:49.256Z,44.00
2019-04-11T14:59:16.080Z,38.43
2019-04-11T15:03:58.253Z,41.73
2019-04-11T15:08:08.135Z,40.20
2019-04-11T15:12:20.178Z,36.47
2019-04-11T15:16:50.816Z,36.97
2019-04-11T15:21:11.197Z,40.60
2019-04-11T15:25:44.633Z,54.83
2019-04-11T15:29:54.119Z,45.37
2019-04-11T15:34:24.955Z,58.27
2019-04-11T15:38:58.576Z,56.60
2019-04-11T15:43:43.432Z,54.17
2019-04-11T15:48:10.480Z,50.17
2019-04-11T15:52:22.992Z,50.83
2019-04-11T15:56:49.256Z,47.30
2019-04-11T16:01:20.025Z,49.40
2019-04-11T16:05:50.433Z,60.93
2019-04-11T16:09:59.783Z,52.50
2019-04-11T16:14:39.358Z,63.77
2019-04-11T16:19:05.396Z,60.13
2019-04-11T16:23:31.531Z,66.63
2019-04-11T16:28:08.342Z,70.23
2019-04-11T16:32:42.959Z,62.30
2019-04-11T16:37:18.019Z,56.70
2019-04-11T16:41:42.161Z,65.07
2019-04-11T16:46:25.383Z,70.33
2019-04-11T16:50:35.079Z,65.10
2019-04-11T16:54:45.283Z,63.20
2019-04-11T16:58:57.671Z,69.27
2019-04-11T17:03:08.950Z,66.83
2019-04-11T17:07:30.310Z,64.40
2019-04-11T17:11:39.707Z,60.20
2019-04-11T17:15:48.804Z,74.67
2019-04-11T17:19:58.604Z,67.43
2019-04-11T17:24:08.247Z,72.90
2019-04-11T17:28:17.866Z,68.93
2019-04-11T17:32:27.492Z,69.50
2019-04-11T17:36:37.129Z,73.37
2019-04-11T17:40:46.682Z,65.40
2019-04-11T17:44:56.528Z,76.33
2019-04-11T17:49:05.888Z,76.60
2019-04-11T17:53:15.133Z,76.53
2019-04-11T17:57:26.934Z,84.83
2019-04-11T18:01:37.778Z,75.33
2019-04-11T18:05:47.552Z,76.73
2019-04-11T18:09:57.123Z,71.40
2019-04-11T18:14:06.478Z,77.50
2019-04-11T18:18:15.772Z,80.40
2019-04-11T18:22:25.635Z,68.50
2019-04-11T18:26:35.217Z,65.13
2019-04-11T18:30:44.961Z,61.50
2019-04-11T18:34:54.491Z,75.33
2019-04-11T18:39:05.931Z,70.33
2019-04-11T18:43:16.260Z,65.57
2019-04-11T18:47:26.571Z,62.80
2019-04-11T18:51:36.478Z,60.73
2019-04-11T18:55:46.242Z,60.47
2019-04-11T18:59:56.639Z,56.00
2019-04-11T19:04:06.156Z,55.90
2019-04-11T19:08:16.683Z,55.90
2019-04-11T19:12:26.151Z,51.73
2019-04-11T19:16:36.073Z,53.33
2019-04-11T19:20:49.978Z,56.93
2019-04-11T19:24:57.178Z,57.80
2019-04-11T19:29:07.917Z,51.13
2019-04-11T19:33:19.262Z,52.07
2019-04-11T19:37:28.951Z,52.53
2019-04-11T19:41:38.297Z,47.23
2019-04-11T19:45:50.038Z,41.83
2019-04-11T19:49:59.295Z,42.87
2019-04-11T19:54:08.525Z,40.77
2019-04-11T19:58:18.939Z,39.93
2019-04-11T20:02:28.830Z,44.97
2019-04-11T20:06:38.479Z,34.77
2019-04-11T20:10:48.128Z,36.70
2019-04-11T20:14:57.533Z,37.07
2019-04-11T20:19:07.102Z,34.40
2019-04-11T20:23:16.636Z,27.07
2019-04-11T20:27:26.063Z,29.27
2019-04-11T20:31:35.319Z,31.07
2019-04-11T20:35:45.357Z,28.97
2019-04-11T20:39:55.021Z,31.13
2019-04-11T20:44:04.488Z,25.73
2019-04-11T20:48:13.683Z,21.50
2019-04-11T20:52:23.165Z,27.03
2019-04-11T20:56:33.245Z,23.00
2019-04-11T21:00:50.211Z,20.13
2019-04-11T21:04:54.448Z,22.10
2019-04-11T21:09:04.327Z,26.40
2019-04-11T21:13:14.143Z,19.43
2019-04-11T21:17:23.745Z,20.00
2019-04-11T21:21:34.512Z,22.93
2019-04-11T21:25:43.717Z,18.87
2019-04-11T21:29:53.210Z,22.37
2019-04-11T21:34:03.871Z,23.17
2019-04-11T21:38:14.278Z,23.23
2019-04-11T21:42:23.964Z,23.27
2019-04-11T21:46:37.274Z,19.50
2019-04-11T21:50:45.042Z,20.77
2019-04-11T21:54:54.776Z,27.73
2019-04-11T21:59:03.882Z,21.33
2019-04-11T22:03:14.105Z,18.93
2019-04-11T22:07:23.586Z,24.23
2019-04-11T22:11:33.301Z,20.13
2019-04-11T22:15:43.191Z,18.83
2019-04-11T22:19:52.481Z,18.67
2019-04-11T22:24:01.957Z,17.87
2019-04-11T22:28:11.139Z,19.80
2019-04-11T22:32:20.768Z,17.90
2019-04-11T22:36:32.199Z,18.23
2019-04-11T22:40:41.390Z,19.73
2019-04-11T22:44:51.192Z,18.20
2019-04-11T22:49:01.527Z,18.10
2019-04-11T22:53:13.157Z,19.00
2019-04-11T22:57:22.605Z,19.50
2019-04-11T23:01:32.592Z,17.87
2019-04-11T23:05:41.988Z,21.60
2019-04-11T23:09:52.237Z,20.00
2019-04-11T23:14:01.870Z,21.17
2019-04-11T23:18:13.896Z,19.50
2019-04-11T23:22:22.453Z,19.13
2019-04-11T23:26:32.491Z,20.93
2019-04-11T23:30:41.655Z,21.30
2019-04-11T23:34:52.709Z,19.50
2019-04-11T23:39:01.923Z,19.80
2019-04-11T23:43:11.407Z,22.70
2019-04-11T23:47:23.177Z,22.57
2019-04-11T23:51:32.706Z,19.87
2019-04-11T23:55:41.624Z,20.13
2019-04-11T23:59:52.467Z,19.40
